Kersey, PA

1:00 PM EST on December 18, 2014 (GMT -0500)
Emerald Estates | Change Station
CLOSE
Current Station
Personal Weather Station
Location: Saint Marys, PA
Elevation: 1870 ft
Nearby Weather Stations

Elev 1870 ft 41.43 °N, 78.60 °W | Updated 5 seconds ago

Overcast
Overcast
27.7 °F
Feels Like 28 °F
N
2.0
Wind Variable Wind from SSE
Gusts 4.0 mph

Today
High -- | Low -- °F
--% Chance of Precip.
Yesterday
High -- | Low -- °F
Precip. -- in
7:35 AM 4:46 PM
Waning Crescent, 13% visible
Pressure 30.12 in
Visibility 1.8 miles
Clouds Overcast 500 ft
Windchill 28 °F
Dew Point 26 °F
Humidity 93%
Rainfall 0.00 in
Snow Depth Not available.
UV 1 out of 12
Pollen .10 out of 12
Air Quality Not available.
Flu Activity Not available.
METAR KDUJ 181753Z AUTO 26012KT 1 3/4SM BR OVC005 M03/M04 A3005 RMK AO2 CIG 004V009 SLP200 I1002 I6005 T10331044 11033 21039 56010

More Conditions Fewer Conditions

Pressure 30.12 in
Visibility 1.8 miles
Clouds Overcast 500 ft
Windchill 28 °F
Dew Point 26 °F
Humidity 93%
Rainfall 0.00 in
Snow Depth Not available.
UV 1 out of 12
Pollen .10 out of 12
Air Quality Not available.
Flu Activity Not available.
METAR KDUJ 181753Z AUTO 26012KT 1 3/4SM BR OVC005 M03/M04 A3005 RMK AO2 CIG 004V009 SLP200 I1002 I6005 T10331044 11033 21039 56010

More Conditions Fewer Conditions

10-Day Weather Forecast

Almanac

Astronomy

Dec. 18, 2014 Rise Set
Actual Time
Civil Twilight
Nautical Twilight
Astronomical Twilight
Moon
Length of Visible Light
Length of Day
Tomorrow will be .
, % of the Moon is Illuminated

Today's Extremes

State Highs State Lows

Community

WunderPhotos

Upload Photos

1,778,969 photos uploaded!

WunderBlogs® & News

Nearby

Air Quality

  Air Quality AQ Index Pollutant
Not available.

Snow Depth

Station Depth Elevation

Earthquake Activity

City Distance Mag. Time & Date
Minimum magnitude displayed is 2.5.

Coastal Water Temperatures

Place Temperature

Nearby Weather Stations